Time;durP1;ratioP1;P1;durP2;ratioP2;P2;SDS_P1;SDS_P2;PMS_P1;PMS_P2;Temp;Humidity;BMP_temperature;BMP_pressure;BME280_temperature;BME280_humidity;BME280_pressure;Samples;Min_cycle;Max_cycle;Signal;HPM_P1;HPM_P2
2022/03/29 00:02:10;;;;;;;6.75;4.70;;;;;;;21.48;50.37;98151.33;1754345;81;25719;-88
2022/03/29 00:04:36;;;;;;;7.75;5.08;;;;;;;21.46;50.25;98150.11;1724919;81;25680;-86
2022/03/29 00:07:02;;;;;;;7.55;4.65;;;;;;;21.48;50.02;98154.11;1715185;81;26479;-86
2022/03/29 00:09:28;;;;;;;8.00;5.35;;;;;;;21.51;50.03;98151.11;1742686;81;25476;-85
2022/03/29 00:11:54;;;;;;;7.15;4.70;;;;;;;21.52;50.16;98151.30;1742428;82;28249;-85
2022/03/29 00:14:20;;;;;;;7.17;4.33;;;;;;;21.52;50.22;98167.44;1742468;82;25762;-86
2022/03/29 00:16:46;;;;;;;6.97;4.67;;;;;;;21.51;50.24;98188.16;1742548;82;25431;-85
2022/03/29 00:19:13;;;;;;;6.30;4.22;;;;;;;21.53;50.29;98175.21;1742627;82;25877;-86
2022/03/29 00:21:39;;;;;;;7.22;4.67;;;;;;;21.53;50.26;98183.58;1742380;82;25851;-86
2022/03/29 00:24:05;;;;;;;6.70;4.45;;;;;;;21.51;50.31;98182.58;1742772;82;27458;-86
2022/03/29 00:26:32;;;;;;;7.37;4.78;;;;;;;21.52;50.39;98175.00;1742615;82;25601;-85
2022/03/29 00:28:58;;;;;;;7.90;4.97;;;;;;;21.52;50.35;98177.78;1742689;82;25667;-86
2022/03/29 00:31:24;;;;;;;6.72;4.53;;;;;;;21.51;50.39;98164.46;1742541;82;25750;-86
2022/03/29 00:33:51;;;;;;;7.25;4.22;;;;;;;21.53;50.38;98158.48;1742696;82;25417;-86
2022/03/29 00:36:17;;;;;;;6.42;4.28;;;;;;;21.52;50.38;98152.69;1742694;82;27565;-86
2022/03/29 00:38:46;;;;;;;8.10;4.85;;;;;;;21.50;50.39;98143.95;1739253;82;25920;-86
2022/03/29 00:41:13;;;;;;;6.20;4.42;;;;;;;21.50;50.46;98158.67;1742271;82;25650;-85
2022/03/29 00:43:40;;;;;;;6.28;4.50;;;;;;;21.50;50.42;98152.31;1742584;82;25833;-86
2022/03/29 00:46:06;;;;;;;6.45;4.60;;;;;;;21.50;50.46;98157.89;1742342;82;25648;-86
2022/03/29 00:48:32;;;;;;;7.17;4.28;;;;;;;21.48;50.51;98144.36;1742700;82;27532;-85
2022/03/29 00:50:59;;;;;;;6.97;4.70;;;;;;;21.49;50.48;98139.56;1728207;82;25831;-87
2022/03/29 00:53:26;;;;;;;7.37;4.60;;;;;;;21.48;50.52;98137.39;1702009;82;25746;-87
2022/03/29 00:55:59;;;;;;;6.55;4.42;;;;;;;21.48;50.51;98135.19;1712664;82;25772;-88
2022/03/29 00:58:20;;;;;;;6.97;4.50;;;;;;;21.47;50.59;98121.06;1693296;83;25671;-86
2022/03/29 01:00:47;;;;;;;6.97;4.40;;;;;;;21.47;50.56;98117.66;1720036;82;27368;-87
2022/03/29 01:03:15;;;;;;;7.12;4.33;;;;;;;21.46;50.58;98106.32;1711046;82;25478;-88
2022/03/29 01:05:42;;;;;;;6.75;4.35;;;;;;;21.46;50.59;98108.30;1714562;81;25605;-87
2022/03/29 01:08:08;;;;;;;7.75;4.72;;;;;;;21.44;50.60;98104.52;1711408;83;25784;-87
2022/03/29 01:10:34;;;;;;;7.42;4.67;;;;;;;21.45;50.60;98104.73;1712138;83;25962;-87
2022/03/29 01:13:00;;;;;;;6.40;4.15;;;;;;;21.44;50.60;98107.31;1713024;83;27612;-87
2022/03/29 01:15:30;;;;;;;6.08;4.20;;;;;;;21.42;50.64;98113.28;1712596;83;25747;-87
2022/03/29 01:17:57;;;;;;;7.30;4.70;;;;;;;21.42;50.64;98109.10;1713043;83;25705;-87
2022/03/29 01:20:29;;;;;;;6.00;4.40;;;;;;;21.41;50.64;98108.92;1713029;83;25698;-87
2022/03/29 01:22:57;;;;;;;5.53;3.95;;;;;;;21.41;50.64;98108.92;1712752;83;25599;-87
2022/03/29 01:25:27;;;;;;;5.80;4.33;;;;;;;21.41;50.68;98095.56;1690080;83;27387;-87
2022/03/29 01:27:54;;;;;;;6.03;4.47;;;;;;;21.40;50.65;98094.80;1713058;83;25515;-85
2022/03/29 01:30:21;;;;;;;6.33;4.33;;;;;;;21.41;50.69;98096.96;1712960;83;25649;-86
2022/03/29 01:32:51;;;;;;;7.45;4.50;;;;;;;21.40;50.69;98093.98;1712890;82;25725;-86
2022/03/29 01:35:21;;;;;;;7.33;4.22;;;;;;;21.38;50.70;98093.59;1712979;83;25706;-86
2022/03/29 01:37:48;;;;;;;7.33;4.33;;;;;;;21.37;50.74;98084.45;1712471;83;27434;-86
2022/03/29 01:40:17;;;;;;;6.00;4.08;;;;;;;21.35;50.75;98074.88;1712908;82;25756;-85
2022/03/29 01:42:53;;;;;;;6.62;4.33;;;;;;;21.33;50.79;98059.17;1713264;83;25474;-86
2022/03/29 01:45:23;;;;;;;6.37;4.28;;;;;;;21.34;50.80;98059.36;1712978;83;25680;-86
2022/03/29 01:47:49;;;;;;;6.08;4.55;;;;;;;21.32;50.81;98055.58;1713221;83;25474;-85
2022/03/29 01:50:15;;;;;;;6.90;4.40;;;;;;;21.33;50.82;98060.57;1713057;83;27434;-86
2022/03/29 01:52:47;;;;;;;6.60;4.40;;;;;;;21.31;50.84;98056.79;1712945;82;25717;-88
2022/03/29 01:55:17;;;;;;;5.87;4.20;;;;;;;21.29;50.83;98048.83;1712647;83;25514;-87
2022/03/29 01:57:45;;;;;;;5.28;4.22;;;;;;;21.29;50.85;98049.42;1712263;82;25761;-88
2022/03/29 02:00:31;;;;;;;6.20;4.10;;;;;;;21.29;50.86;98045.23;1712935;82;25621;-87
2022/03/29 02:02:59;;;;;;;6.50;4.45;;;;;;;21.29;50.85;98050.22;1712784;83;27652;-88
2022/03/29 02:05:26;;;;;;;5.45;4.35;;;;;;;21.29;50.86;98048.83;1707426;82;25957;-88
2022/03/29 02:07:52;;;;;;;5.72;4.15;;;;;;;21.28;50.87;98040.88;1702236;84;25438;-88
2022/03/29 02:10:21;;;;;;;6.08;4.40;;;;;;;21.27;50.87;98038.67;1760174;81;26524;-88
2022/03/29 02:12:49;;;;;;;6.65;4.35;;;;;;;21.26;50.94;98035.70;1760219;81;25717;-88
2022/03/29 02:15:17;;;;;;;6.92;4.30;;;;;;;21.25;50.96;98027.16;1749781;82;28075;-88
2022/03/29 02:17:45;;;;;;;5.92;4.03;;;;;;;21.24;50.96;98032.51;1749566;82;25881;-88
2022/03/29 02:20:15;;;;;;;5.65;4.47;;;;;;;21.23;50.98;98033.72;1749681;82;25413;-88
2022/03/29 02:22:42;;;;;;;6.20;4.47;;;;;;;21.23;50.98;98028.73;1749661;82;26433;-86
2022/03/29 02:25:12;;;;;;;6.33;4.45;;;;;;;21.20;51.05;98034.52;1749701;82;25634;-88
2022/03/29 02:27:43;;;;;;;6.90;4.47;;;;;;;21.19;51.07;98036.50;1749723;82;30623;-88
2022/03/29 02:30:14;;;;;;;6.30;4.30;;;;;;;21.19;51.07;98035.11;1749783;82;25689;-87
2022/03/29 02:32:41;;;;;;;6.45;4.28;;;;;;;21.19;51.09;98038.51;1749994;82;25647;-88
2022/03/29 02:35:08;;;;;;;6.25;4.17;;;;;;;21.19;51.13;98031.55;1749562;82;26598;-88
2022/03/29 02:37:35;;;;;;;5.75;4.15;;;;;;;21.18;51.11;98031.33;1749766;82;25632;-88
2022/03/29 02:40:03;;;;;;;6.25;4.33;;;;;;;21.19;51.14;98022.56;1749529;82;28321;-89
2022/03/29 02:42:30;;;;;;;7.08;4.45;;;;;;;21.19;51.11;98028.77;1749511;81;25749;-89
2022/03/29 02:44:56;;;;;;;6.08;4.35;;;;;;;21.18;51.17;98022.38;1749554;82;25422;-88
2022/03/29 02:47:22;;;;;;;6.75;4.35;;;;;;;21.16;51.16;98021.98;1749920;82;26466;-88
2022/03/29 02:49:48;;;;;;;6.00;4.20;;;;;;;21.16;51.17;98023.38;1749830;81;25902;-88
2022/03/29 02:52:15;;;;;;;4.90;4.03;;;;;;;21.16;51.23;98020.58;1749769;81;27353;-86
2022/03/29 02:54:41;;;;;;;6.03;4.12;;;;;;;21.17;51.16;98019.41;1749852;82;25786;-86
2022/03/29 02:57:09;;;;;;;6.03;4.08;;;;;;;21.15;51.21;98017.61;1749520;82;25598;-86
2022/03/29 02:59:35;;;;;;;6.78;4.53;;;;;;;21.15;51.18;98019.00;1749657;82;26425;-86
2022/03/29 03:02:02;;;;;;;5.75;4.03;;;;;;;21.14;51.25;98010.46;1749895;82;25658;-86
2022/03/29 03:04:28;;;;;;;6.35;4.35;;;;;;;21.15;51.24;98014.02;1749793;82;28020;-86
2022/03/29 03:06:54;;;;;;;6.90;4.40;;;;;;;21.15;51.27;98014.83;1764345;80;25614;-86
2022/03/29 03:09:20;;;;;;;5.92;4.33;;;;;;;21.13;51.27;98013.03;1770386;81;25625;-86
2022/03/29 03:11:46;;;;;;;5.20;4.08;;;;;;;21.14;51.27;98013.84;1770316;81;25719;-86
2022/03/29 03:14:11;;;;;;;6.05;4.37;;;;;;;21.12;51.30;98012.84;1770445;79;25662;-85
2022/03/29 03:16:37;;;;;;;6.00;4.37;;;;;;;21.12;51.30;98009.25;1770314;81;28161;-86
2022/03/29 03:19:03;;;;;;;5.08;4.03;;;;;;;21.13;51.33;98010.86;1770142;80;25428;-87
2022/03/29 03:21:29;;;;;;;5.95;4.37;;;;;;;21.11;51.36;98012.66;1770369;81;25718;-86
2022/03/29 03:23:55;;;;;;;6.33;4.30;;;;;;;21.10;51.43;98012.44;1770352;81;25681;-86
2022/03/29 03:26:21;;;;;;;7.15;4.42;;;;;;;21.09;51.41;98010.05;1770313;81;25700;-86
2022/03/29 03:28:47;;;;;;;5.37;4.20;;;;;;;21.07;51.40;98004.87;1770366;80;27407;-85
2022/03/29 03:31:13;;;;;;;6.55;4.42;;;;;;;21.08;51.44;98005.09;1770227;81;25757;-86
2022/03/29 03:33:39;;;;;;;5.75;4.40;;;;;;;21.06;51.46;98008.28;1770258;81;25586;-85
2022/03/29 03:36:06;;;;;;;5.47;4.00;;;;;;;21.04;51.51;98019.02;1770487;81;25661;-86
2022/03/29 03:38:32;;;;;;;5.95;4.50;;;;;;;21.04;51.51;98019.64;1770386;81;25668;-86
2022/03/29 03:40:58;;;;;;;6.30;4.45;;;;;;;21.03;51.49;98023.59;1770270;81;28167;-85
2022/03/29 03:43:24;;;;;;;5.33;3.90;;;;;;;21.05;51.49;98028.19;1770211;81;25624;-85
2022/03/29 03:45:50;;;;;;;6.47;4.58;;;;;;;21.03;51.55;98024.41;1770322;81;25431;-85
2022/03/29 03:48:16;;;;;;;5.70;4.20;;;;;;;21.03;51.55;98023.02;1770259;81;25643;-85
2022/03/29 03:50:42;;;;;;;5.45;4.20;;;;;;;21.03;51.58;98015.25;1770346;80;25577;-85
2022/03/29 03:53:09;;;;;;;5.92;4.40;;;;;;;21.01;51.61;98016.27;1770382;81;26809;-86
2022/03/29 03:55:35;;;;;;;6.10;4.53;;;;;;;21.00;51.67;98018.83;1770373;80;25693;-86
2022/03/29 03:58:01;;;;;;;7.25;4.65;;;;;;;21.01;51.63;98020.44;1770422;80;25697;-85
2022/03/29 04:00:27;;;;;;;5.67;4.00;;;;;;;21.01;51.59;98015.64;1769897;81;25725;-86
2022/03/29 04:02:54;;;;;;;5.62;4.12;;;;;;;21.03;51.60;98009.67;1770304;81;25483;-86
2022/03/29 04:05:21;;;;;;;6.10;4.78;;;;;;;21.01;51.63;98019.82;1770051;80;28180;-85
2022/03/29 04:07:47;;;;;;;5.60;3.80;;;;;;;20.99;51.62;98013.88;1750064;81;25473;-85
2022/03/29 04:10:14;;;;;;;5.20;4.33;;;;;;;20.98;51.70;98015.67;1749875;82;25770;-86
2022/03/29 04:12:40;;;;;;;6.45;4.53;;;;;;;20.97;51.74;98021.02;1749569;82;26560;-87
2022/03/29 04:15:08;;;;;;;6.05;4.37;;;;;;;20.97;51.75;98023.22;1749820;82;25402;-88
2022/03/29 04:17:34;;;;;;;5.97;4.10;;;;;;;20.97;51.74;98025.20;1749503;82;28272;-87
2022/03/29 04:20:01;;;;;;;5.70;4.15;;;;;;;20.93;51.80;98019.66;1749639;82;25442;-86
2022/03/29 04:22:27;;;;;;;5.55;4.17;;;;;;;20.93;51.80;98021.82;1749483;81;25641;-86
2022/03/29 04:24:54;;;;;;;6.12;4.10;;;;;;;20.94;51.83;98021.23;1749802;82;26456;-87
2022/03/29 04:27:20;;;;;;;6.10;4.47;;;;;;;20.92;51.80;98018.84;1749792;81;25572;-87
2022/03/29 04:29:46;;;;;;;5.90;4.40;;;;;;;20.91;51.86;98015.88;1749734;82;27585;-87
2022/03/29 04:32:12;;;;;;;6.05;4.37;;;;;;;20.90;51.91;98012.88;1749743;82;25702;-88
2022/03/29 04:34:40;;;;;;;5.67;4.30;;;;;;;20.89;51.90;98008.48;1749922;82;25662;-88
2022/03/29 04:37:06;;;;;;;5.70;4.17;;;;;;;20.90;51.88;98012.88;1749459;82;25998;-88
2022/03/29 04:39:32;;;;;;;6.15;4.20;;;;;;;20.89;51.88;98012.66;1749848;82;25666;-87
2022/03/29 04:41:59;;;;;;;5.12;4.25;;;;;;;20.89;51.94;98005.69;1749660;82;27440;-88
2022/03/29 04:44:25;;;;;;;6.15;4.83;;;;;;;20.90;51.90;97996.75;1749645;82;25667;-88
2022/03/29 04:46:51;;;;;;;6.30;4.87;;;;;;;20.90;51.83;98001.73;1749834;81;25683;-88
2022/03/29 04:49:17;;;;;;;7.12;4.60;;;;;;;20.88;51.94;97996.34;1749802;82;25694;-87
2022/03/29 04:51:43;;;;;;;5.97;4.35;;;;;;;20.88;51.91;97997.73;1749777;81;25685;-87
2022/03/29 04:54:09;;;;;;;6.33;4.70;;;;;;;20.87;51.92;97995.54;1749768;82;27516;-88
2022/03/29 04:56:35;;;;;;;6.20;4.20;;;;;;;20.87;51.99;97990.59;1749658;82;25878;-88
2022/03/29 04:59:01;;;;;;;6.92;4.70;;;;;;;20.85;51.96;97993.77;1749669;82;25690;-87
2022/03/29 05:01:27;;;;;;;7.75;4.75;;;;;;;20.83;52.07;97986.99;1749767;82;25671;-87
2022/03/29 05:03:54;;;;;;;5.50;4.53;;;;;;;20.82;51.98;97990.39;1749933;82;25564;-87
2022/03/29 05:06:20;;;;;;;7.45;4.60;;;;;;;20.83;52.00;97998.94;1749365;79;27443;-88
2022/03/29 05:08:46;;;;;;;5.67;4.30;;;;;;;20.82;52.03;97997.36;1749682;82;25463;-88
2022/03/29 05:11:12;;;;;;;6.75;4.40;;;;;;;20.82;52.05;98001.53;1749797;82;25491;-87
2022/03/29 05:13:38;;;;;;;5.97;4.37;;;;;;;20.82;52.03;98011.27;1749783;82;25745;-88
2022/03/29 05:16:05;;;;;;;5.70;4.28;;;;;;;20.81;52.09;98011.86;1749741;81;25589;-87
2022/03/29 05:18:30;;;;;;;5.28;4.42;;;;;;;20.81;52.12;98018.83;1749815;82;27380;-87
2022/03/29 05:20:56;;;;;;;6.70;4.83;;;;;;;20.80;52.07;98012.27;1749630;82;25654;-87
2022/03/29 05:23:23;;;;;;;6.00;4.28;;;;;;;20.80;52.08;98015.05;1749724;82;25750;-87
2022/03/29 05:25:50;;;;;;;5.83;4.60;;;;;;;20.81;52.05;98009.67;1749457;82;25736;-88
2022/03/29 05:28:16;;;;;;;6.90;4.72;;;;;;;20.82;52.03;98023.80;1749746;81;25682;-87
2022/03/29 05:30:42;;;;;;;6.15;4.50;;;;;;;20.83;52.03;98024.00;1749856;82;27404;-87
2022/03/29 05:33:10;;;;;;;6.62;4.72;;;;;;;20.82;52.06;98025.20;1749629;82;25855;-88
2022/03/29 05:35:36;;;;;;;6.75;4.87;;;;;;;20.82;52.06;98023.80;1749401;80;25645;-87
2022/03/29 05:38:03;;;;;;;6.35;4.55;;;;;;;20.83;52.10;98033.73;1749667;82;26449;-88
2022/03/29 05:40:29;;;;;;;6.00;4.55;;;;;;;20.80;52.16;98032.56;1749736;82;25412;-88
2022/03/29 05:42:56;;;;;;;6.42;4.47;;;;;;;20.80;52.22;98042.89;1749862;81;27408;-86
2022/03/29 05:45:23;;;;;;;6.17;4.30;;;;;;;20.79;52.27;98034.34;1749719;82;25496;-87
2022/03/29 05:50:34;;;;;;;6.17;4.90;;;;;;;20.80;52.32;98040.91;1749477;82;25703;-85
2022/03/29 05:53:02;;;;;;;7.45;4.70;;;;;;;20.80;52.32;98038.72;1749643;82;25707;-86
2022/03/29 05:55:29;;;;;;;8.10;5.17;;;;;;;20.78;52.34;98043.28;1749443;82;27414;-87
2022/03/29 05:57:56;;;;;;;6.53;4.75;;;;;;;20.78;52.25;98049.47;1749653;82;25676;-86
2022/03/29 06:00:23;;;;;;;6.22;4.75;;;;;;;20.78;52.23;98055.05;1749377;82;25633;-86
2022/03/29 06:02:51;;;;;;;6.50;4.90;;;;;;;20.77;52.30;98057.61;1749563;81;25729;-86
2022/03/29 06:05:17;;;;;;;7.30;4.92;;;;;;;20.76;52.24;98051.27;1748995;82;25710;-86
2022/03/29 06:07:44;;;;;;;5.55;4.08;;;;;;;20.76;52.32;98042.91;1749816;80;28067;-85
2022/03/29 06:10:11;;;;;;;6.05;4.60;;;;;;;20.76;52.35;98044.30;1749464;82;25626;-86
2022/03/29 06:12:37;;;;;;;6.37;4.42;;;;;;;20.77;52.32;98035.33;1749569;82;25713;-86
2022/03/29 06:15:08;;;;;;;7.10;4.67;;;;;;;20.76;52.25;98019.83;1749826;82;25737;-85
2022/03/29 06:17:35;;;;;;;7.42;5.03;;;;;;;20.76;52.27;98019.83;1749507;81;25425;-86
2022/03/29 06:20:07;;;;;;;10.50;5.37;;;;;;;20.75;52.20;98014.85;1749538;82;27481;-86
2022/03/29 06:22:40;;;;;;;7.05;4.78;;;;;;;20.73;52.31;98012.27;1749473;82;25653;-87
2022/03/29 06:25:08;;;;;;;7.20;5.35;;;;;;;20.72;52.32;98014.88;1749918;82;25714;-86
2022/03/29 06:27:35;;;;;;;8.85;5.35;;;;;;;20.72;52.26;98020.44;1750014;80;25905;-87
2022/03/29 06:30:04;;;;;;;12.98;5.87;;;;;;;20.72;52.25;98044.10;1749782;82;25749;-90
2022/03/29 06:32:30;;;;;;;8.80;5.30;;;;;;;20.71;52.38;98030.77;1749867;82;27372;-87
2022/03/29 06:34:57;;;;;;;9.53;5.60;;;;;;;20.71;52.48;98063.38;1749685;82;25743;-87
2022/03/29 06:37:23;;;;;;;11.80;6.28;;;;;;;20.71;52.50;98065.57;1749913;82;25774;-87
2022/03/29 06:39:49;;;;;;;10.40;6.30;;;;;;;20.72;52.49;98056.63;1749707;82;25610;-87
2022/03/29 06:42:18;;;;;;;9.40;6.05;;;;;;;20.73;52.61;98040.11;1749933;82;25734;-87
2022/03/29 06:44:43;;;;;;;10.98;6.33;;;;;;;20.72;52.75;98026.78;1749481;80;25986;-87
2022/03/29 06:47:10;;;;;;;11.05;6.12;;;;;;;20.72;52.86;98024.00;1749768;82;25587;-88
2022/03/29 06:49:37;;;;;;;11.40;6.30;;;;;;;20.72;52.99;98022.61;1749573;82;25804;-89
2022/03/29 06:52:04;;;;;;;10.25;6.40;;;;;;;20.73;53.12;98014.47;1749755;82;25739;-89
2022/03/29 06:54:30;;;;;;;10.48;6.47;;;;;;;20.74;53.20;98018.03;1749955;82;25613;-88
2022/03/29 06:56:57;;;;;;;10.08;6.08;;;;;;;20.75;53.25;98025.21;1749522;82;27562;-89
2022/03/29 06:59:24;;;;;;;11.50;6.60;;;;;;;20.77;53.31;98025.59;1749865;82;25698;-88
2022/03/29 07:01:50;;;;;;;17.62;7.05;;;;;;;20.78;53.39;98026.58;1749918;82;25665;-88
2022/03/29 07:04:16;;;;;;;14.10;7.25;;;;;;;20.80;53.39;98026.98;1749776;82;25862;-89
2022/03/29 07:06:42;;;;;;;12.07;7.62;;;;;;;20.82;53.43;98027.98;1749492;80;25594;-87
2022/03/29 07:11:53;;;;;;;13.20;7.55;;;;;;;20.85;53.36;98029.97;1749386;82;25740;-87
2022/03/29 07:14:19;;;;;;;11.40;7.17;;;;;;;20.87;53.42;98034.52;1749743;81;25440;-87
2022/03/29 07:16:46;;;;;;;15.40;7.40;;;;;;;20.88;53.39;98033.35;1749774;82;25756;-90
2022/03/29 07:19:12;;;;;;;13.03;7.45;;;;;;;20.91;53.46;98040.94;1749752;82;25629;-87
2022/03/29 07:21:39;;;;;;;12.30;7.12;;;;;;;20.92;53.45;98036.14;1749782;82;28187;-87
2022/03/29 07:24:09;;;;;;;14.38;7.53;;;;;;;20.92;53.40;98036.95;1749651;81;25582;-87
2022/03/29 07:26:37;;;;;;;12.45;7.05;;;;;;;20.93;53.30;98039.92;1750110;82;25390;-87
2022/03/29 07:29:04;;;;;;;11.97;6.90;;;;;;;20.94;53.28;98039.34;1749346;82;25791;-87
2022/03/29 07:31:32;;;;;;;11.90;7.15;;;;;;;20.96;53.26;98032.78;1749546;82;25602;-87
2022/03/29 07:33:59;;;;;;;14.68;7.78;;;;;;;20.97;53.39;98037.14;1749740;81;27369;-88
2022/03/29 07:36:25;;;;;;;12.15;7.58;;;;;;;20.98;53.40;98030.37;1749872;82;25698;-87
2022/03/29 07:38:51;;;;;;;10.88;7.28;;;;;;;20.99;53.30;98031.98;1749671;82;25600;-87
2022/03/29 07:41:18;;;;;;;13.70;7.83;;;;;;;20.98;53.32;98033.16;1749843;81;25762;-87
2022/03/29 07:43:44;;;;;;;12.93;7.72;;;;;;;21.01;53.25;98031.58;1749903;82;25477;-88
2022/03/29 07:46:11;;;;;;;14.40;7.20;;;;;;;21.03;53.03;98030.56;1749700;82;28325;-87
2022/03/29 07:48:37;;;;;;;11.48;6.83;;;;;;;21.04;52.95;98034.34;1749695;82;25727;-87
2022/03/29 07:51:05;;;;;;;13.28;6.97;;;;;;;21.05;52.91;98028.19;1749945;80;25650;-89
2022/03/29 07:53:32;;;;;;;12.43;7.12;;;;;;;21.05;52.75;98027.59;1749582;82;25694;-88
2022/03/29 07:55:58;;;;;;;12.58;6.83;;;;;;;21.08;52.66;98027.97;1750096;82;25613;-88
2022/03/29 07:58:25;;;;;;;10.82;6.83;;;;;;;21.09;52.58;98022.59;1749728;82;27345;-89
2022/03/29 08:00:51;;;;;;;13.38;7.65;;;;;;;21.10;52.47;98024.20;1749835;80;25786;-89
2022/03/29 08:03:20;;;;;;;13.08;7.20;;;;;;;21.11;52.41;98022.99;1749898;82;25414;-89
2022/03/29 08:05:48;;;;;;;11.33;7.15;;;;;;;21.11;52.31;98027.17;1749368;82;25779;-87
2022/03/29 08:08:16;;;;;;;11.10;7.17;;;;;;;21.13;52.29;98020.61;1749480;79;25674;-88
2022/03/29 08:10:46;;;;;;;12.53;6.70;;;;;;;21.15;52.16;98023.77;1749744;82;28301;-88
2022/03/29 08:13:14;;;;;;;12.03;7.08;;;;;;;21.17;52.15;98027.77;1749791;82;25480;-88
2022/03/29 08:15:45;;;;;;;11.20;6.80;;;;;;;21.18;52.04;98028.55;1749460;81;25664;-87
2022/03/29 08:18:11;;;;;;;12.13;6.60;;;;;;;21.17;52.03;98023.59;1749827;82;25837;-88
2022/03/29 08:20:39;;;;;;;12.75;6.40;;;;;;;21.19;52.05;98026.75;1749905;80;25737;-89
2022/03/29 08:23:08;;;;;;;13.40;7.37;;;;;;;21.20;52.06;98021.98;1749777;82;28295;-89
2022/03/29 08:25:38;;;;;;;12.63;6.42;;;;;;;21.23;52.01;98026.75;1749725;82;25699;-88
2022/03/29 08:28:06;;;;;;;9.70;6.50;;;;;;;21.25;51.88;98031.34;1749972;82;25682;-89
2022/03/29 08:30:34;;;;;;;13.55;6.83;;;;;;;21.28;51.82;98030.53;1749943;80;25673;-87
2022/03/29 08:33:02;;;;;;;9.95;6.45;;;;;;;21.28;51.78;98026.35;1749534;82;25638;-88
2022/03/29 08:35:30;;;;;;;10.23;6.42;;;;;;;21.30;51.75;98025.95;1749425;81;27398;-86
2022/03/29 08:37:56;;;;;;;12.90;6.67;;;;;;;21.33;51.75;98027.13;1749765;81;25676;-86
2022/03/29 08:40:26;;;;;;;11.68;7.10;;;;;;;21.34;51.57;98027.31;1749841;80;25750;-87
2022/03/29 08:42:54;;;;;;;11.08;6.08;;;;;;;21.34;51.54;98023.94;1749247;81;25416;-87
2022/03/29 08:45:20;;;;;;;11.10;6.42;;;;;;;21.35;51.45;98024.12;1749283;81;25416;-86
2022/03/29 08:47:47;;;;;;;10.28;6.15;;;;;;;21.36;51.46;98024.31;1749820;82;27387;-87
2022/03/29 08:50:15;;;;;;;11.05;6.25;;;;;;;21.35;51.40;98021.34;1749366;82;25930;-87
2022/03/29 08:52:42;;;;;;;11.22;6.62;;;;;;;21.38;51.36;98030.88;1749773;82;25425;-87
2022/03/29 08:55:10;;;;;;;10.65;6.87;;;;;;;21.38;51.32;98030.29;1749864;81;26567;-86
2022/03/29 08:57:39;;;;;;;11.08;6.30;;;;;;;21.40;51.24;98020.94;1749589;82;41483;-86
2022/03/29 09:00:08;;;;;;;10.53;6.55;;;;;;;21.43;51.17;98017.94;1749727;81;27308;-87
2022/03/29 09:02:37;;;;;;;9.08;6.35;;;;;;;21.44;51.12;98019.52;1749753;81;25708;-88
2022/03/29 09:05:17;;;;;;;10.82;6.10;;;;;;;21.43;51.08;98021.53;1749762;82;25753;-86
2022/03/29 09:07:59;;;;;;;9.25;5.97;;;;;;;21.45;50.98;98014.16;1753887;79;25750;-86
2022/03/29 09:10:45;;;;;;;11.38;6.10;;;;;;;21.46;50.96;98019.11;1769782;81;25412;-89
2022/03/29 09:13:30;;;;;;;10.35;6.17;;;;;;;21.46;50.88;98022.70;1770050;81;27494;-86
2022/03/29 09:16:00;;;;;;;10.13;6.42;;;;;;;21.47;50.82;98024.91;1769607;81;25423;-87
2022/03/29 09:18:28;;;;;;;8.63;6.03;;;;;;;21.46;50.74;98022.70;1770154;81;25411;-89
2022/03/29 09:21:12;;;;;;;9.43;6.00;;;;;;;21.46;50.66;98006.57;1769952;81;25785;-87
2022/03/29 09:23:42;;;;;;;8.53;6.22;;;;;;;21.48;50.58;98012.55;1690963;84;25761;-89
2022/03/29 09:26:27;;;;;;;10.50;6.22;;;;;;;21.47;50.56;98004.77;1689509;84;27366;-89
2022/03/29 09:28:54;;;;;;;9.53;6.20;;;;;;;21.49;50.49;98008.55;1692375;84;25681;-89
2022/03/29 09:31:24;;;;;;;10.10;5.92;;;;;;;21.46;50.51;97999.59;1692234;84;25717;-89
2022/03/29 09:33:51;;;;;;;9.75;6.28;;;;;;;21.45;50.38;97998.83;1692213;84;25709;-87
2022/03/29 09:36:20;;;;;;;9.90;6.33;;;;;;;21.46;50.31;97993.44;1692443;84;25856;-88
2022/03/29 09:38:51;;;;;;;9.03;5.95;;;;;;;21.47;50.29;97992.84;1691922;84;25990;-88
2022/03/29 09:41:32;;;;;;;10.60;6.12;;;;;;;21.49;50.20;97994.02;1692099;84;25715;-88
2022/03/29 09:44:09;;;;;;;9.85;6.28;;;;;;;21.49;50.28;97989.84;1692257;84;25509;-88
2022/03/29 09:47:04;;;;;;;9.28;5.30;;;;;;;21.48;50.30;97981.30;1692462;84;26666;-89
2022/03/29 09:49:58;;;;;;;10.90;6.28;;;;;;;21.47;50.42;97987.27;1692270;84;25746;-88
2022/03/29 09:52:31;;;;;;;10.13;5.50;;;;;;;21.46;50.42;97986.47;1692202;84;27425;-88
2022/03/29 09:55:15;;;;;;;11.30;6.15;;;;;;;21.48;50.47;97988.27;1692382;84;25528;-88
2022/03/29 09:57:50;;;;;;;9.23;5.92;;;;;;;21.47;50.56;97989.44;1692121;84;25511;-85
2022/03/29 10:00:32;;;;;;;11.88;6.10;;;;;;;21.44;50.52;97992.45;1728168;81;25688;-85
2022/03/29 10:03:00;;;;;;;9.10;5.95;;;;;;;21.44;50.55;97987.46;1769723;81;25912;-85
2022/03/29 10:05:27;;;;;;;10.75;5.95;;;;;;;21.44;50.54;97984.09;1770033;81;27418;-84
2022/03/29 10:10:39;;;;;;;10.80;5.95;;;;;;;21.44;50.52;97974.33;1724952;83;25921;-85
2022/03/29 10:13:06;;;;;;;9.88;5.87;;;;;;;21.43;50.51;97971.36;1724671;82;25725;-85
2022/03/29 10:15:34;;;;;;;10.75;6.10;;;;;;;21.41;50.58;97963.19;1700674;83;25685;-85
2022/03/29 10:18:01;;;;;;;10.32;5.95;;;;;;;21.43;50.55;97968.57;1724526;83;27654;-85
2022/03/29 10:20:28;;;;;;;7.90;5.53;;;;;;;21.45;50.66;97963.98;1724751;83;25914;-84
2022/03/29 10:22:57;;;;;;;9.93;6.00;;;;;;;21.46;50.76;97963.37;1724760;83;25685;-85
2022/03/29 10:25:24;;;;;;;8.60;6.12;;;;;;;21.44;50.83;97960.98;1724945;82;26592;-85
2022/03/29 10:27:51;;;;;;;9.75;5.87;;;;;;;21.45;50.89;97963.98;1724978;83;25493;-84
2022/03/29 10:30:34;;;;;;;9.58;6.12;;;;;;;21.45;51.03;97955.63;1724867;82;28279;-84
2022/03/29 10:33:24;;;;;;;10.32;6.30;;;;;;;21.44;51.10;97945.66;1723521;83;25911;-85
2022/03/29 10:36:12;;;;;;;10.28;6.00;;;;;;;21.44;51.18;97945.06;1690340;84;25506;-84
2022/03/29 10:38:51;;;;;;;10.63;5.95;;;;;;;21.44;51.16;97943.67;1689612;84;25680;-84
2022/03/29 10:41:32;;;;;;;9.80;5.83;;;;;;;21.44;51.16;97938.09;1689451;84;25824;-84
2022/03/29 10:44:05;;;;;;;10.38;5.90;;;;;;;21.47;51.21;97932.92;1689963;84;27381;-84
2022/03/29 10:46:50;;;;;;;13.45;6.15;;;;;;;21.46;51.28;97922.95;1689650;84;25752;-84
2022/03/29 10:49:32;;;;;;;9.80;5.15;;;;;;;21.46;51.43;97922.36;1701906;84;25656;-84
2022/03/29 10:52:12;;;;;;;9.20;5.92;;;;;;;21.47;51.24;97921.77;1701289;84;25737;-84
2022/03/29 10:54:41;;;;;;;9.30;5.80;;;;;;;21.47;51.09;97916.98;1701761;84;25524;-86
2022/03/29 10:57:34;;;;;;;9.38;6.00;;;;;;;21.48;51.09;97917.78;1701357;84;27541;-85
2022/03/29 11:00:21;;;;;;;12.13;6.08;;;;;;;21.48;51.13;97920.56;1699294;84;25501;-86
2022/03/29 11:03:14;;;;;;;9.80;5.47;;;;;;;21.47;51.23;97923.17;1699132;84;25690;-86
2022/03/29 11:06:17;;;;;;;11.25;5.50;;;;;;;21.45;51.12;97908.24;1701721;83;26441;-86
2022/03/29 11:08:48;;;;;;;8.98;5.60;;;;;;;21.46;51.01;97914.59;1696728;84;25908;-86
2022/03/29 11:11:43;;;;;;;9.83;5.95;;;;;;;21.44;50.89;97915.00;1694358;82;27438;-86
2022/03/29 11:14:34;;;;;;;11.22;6.00;;;;;;;21.42;50.79;97913.23;1735307;82;25709;-85
2022/03/29 11:17:22;;;;;;;11.35;6.58;;;;;;;21.42;50.76;97908.44;1735399;82;25632;-86
2022/03/29 11:19:50;;;;;;;8.25;6.47;;;;;;;21.42;50.70;97907.66;1735335;82;26709;-84
2022/03/29 11:22:36;;;;;;;9.58;6.22;;;;;;;21.41;50.62;97899.09;1735721;82;25576;-84
2022/03/29 11:25:06;;;;;;;10.60;6.57;;;;;;;21.40;50.56;97898.31;1735553;82;28459;-83
2022/03/29 11:27:36;;;;;;;9.68;6.62;;;;;;;21.40;50.51;97897.52;1735678;82;25674;-83
2022/03/29 11:30:10;;;;;;;14.47;7.08;;;;;;;21.40;50.38;97888.56;1735376;82;25473;-84
2022/03/29 11:32:40;;;;;;;10.03;6.72;;;;;;;21.40;50.32;97889.15;1729304;82;25643;-83
2022/03/29 11:35:09;;;;;;;13.85;6.83;;;;;;;21.40;50.33;97888.56;1734486;82;25666;-85
2022/03/29 11:37:43;;;;;;;11.00;6.10;;;;;;;21.40;50.33;97877.41;1735539;82;27489;-85
2022/03/29 11:40:14;;;;;;;11.10;6.62;;;;;;;21.42;50.38;97870.04;1735486;82;25674;-84
2022/03/29 11:42:53;;;;;;;10.50;6.30;;;;;;;21.42;50.31;97872.20;1735600;82;25699;-85
2022/03/29 11:45:23;;;;;;;10.15;6.65;;;;;;;21.42;50.27;97865.23;1735621;82;26717;-85
2022/03/29 11:48:00;;;;;;;8.98;6.17;;;;;;;21.42;50.29;97870.04;1735716;82;25781;-85
2022/03/29 11:50:49;;;;;;;10.38;6.62;;;;;;;21.40;50.31;97864.06;1734852;82;27432;-84